Time;durP1;ratioP1;P1;durP2;ratioP2;P2;SDS_P1;SDS_P2;PMS_P1;PMS_P2;Temp;Humidity;BMP_temperature;BMP_pressure;BME280_temperature;BME280_humidity;BME280_pressure;Samples;Min_cycle;Max_cycle;Signal;HPM_P1;HPM_P2
2022/07/16 00:02:43;;;;;;;9.32;4.85;;;;;;;19.85;46.62;101996.56;5052507;28;20029;-66
2022/07/16 00:05:10;;;;;;;9.98;5.05;;;;;;;19.82;46.66;101996.00;5052364;28;20103;-65
2022/07/16 00:07:37;;;;;;;7.22;5.05;;;;;;;19.79;46.79;101994.41;5052203;28;20032;-65
2022/07/16 00:10:04;;;;;;;8.40;5.20;;;;;;;19.76;46.68;101993.84;5052376;28;20033;-66
2022/07/16 00:12:35;;;;;;;9.27;5.10;;;;;;;19.71;46.63;101994.25;5051871;28;20033;-66
2022/07/16 00:15:03;;;;;;;6.30;4.85;;;;;;;19.65;46.83;101989.38;5052465;28;20052;-65
2022/07/16 00:17:30;;;;;;;6.30;5.03;;;;;;;19.61;46.75;101991.50;5052294;28;20135;-65
2022/07/16 00:19:57;;;;;;;7.40;4.95;;;;;;;19.58;46.81;101983.63;5052199;28;20080;-66
2022/07/16 00:22:24;;;;;;;8.23;5.40;;;;;;;19.55;46.81;101992.06;5051296;28;20123;-65
2022/07/16 00:24:51;;;;;;;6.78;5.15;;;;;;;19.51;47.10;101993.31;5052213;28;20055;-65
2022/07/16 00:27:18;;;;;;;6.28;5.13;;;;;;;19.48;47.08;101990.88;5052193;28;20043;-65
2022/07/16 00:29:45;;;;;;;6.20;5.05;;;;;;;19.45;47.12;101982.97;5050484;28;20080;-65
2022/07/16 00:32:11;;;;;;;5.63;4.75;;;;;;;19.43;47.40;101986.84;5050921;28;20051;-65
2022/07/16 00:34:38;;;;;;;9.30;5.03;;;;;;;19.39;47.20;101983.53;5052198;28;20055;-65
2022/07/16 00:37:05;;;;;;;7.50;4.72;;;;;;;19.37;47.33;101982.81;5051877;28;20041;-66
2022/07/16 00:39:31;;;;;;;5.40;4.57;;;;;;;19.33;47.26;101984.94;5052087;28;20036;-66
2022/07/16 00:41:58;;;;;;;7.95;4.63;;;;;;;19.31;47.38;101988.78;5051637;28;20033;-65
2022/07/16 00:44:25;;;;;;;5.30;4.80;;;;;;;19.29;47.55;101985.31;5051126;28;20057;-64
2022/07/16 00:46:52;;;;;;;5.78;5.10;;;;;;;19.28;47.71;101983.59;5050437;28;20048;-65
2022/07/16 00:49:21;;;;;;;6.65;4.45;;;;;;;19.26;47.58;101980.16;5050498;28;20124;-65
2022/07/16 00:51:50;;;;;;;5.78;4.60;;;;;;;19.25;47.70;101987.47;5050194;28;20037;-65
2022/07/16 00:54:18;;;;;;;6.35;5.50;;;;;;;19.25;47.90;101984.75;5050140;28;20051;-66
2022/07/16 00:56:44;;;;;;;6.32;4.90;;;;;;;19.24;48.14;101979.44;5050102;28;20120;-65
2022/07/16 00:59:12;;;;;;;5.60;4.45;;;;;;;19.24;48.12;101982.16;5051609;28;20544;-66
2022/07/16 01:01:40;;;;;;;5.47;4.93;;;;;;;19.24;48.46;101982.16;5051269;28;20047;-65
2022/07/16 01:04:15;;;;;;;7.65;4.55;;;;;;;19.24;48.36;101985.75;5051545;28;20418;-65
2022/07/16 01:06:45;;;;;;;7.18;5.10;;;;;;;19.26;48.35;101983.75;5051045;28;20049;-66
2022/07/16 01:09:12;;;;;;;7.68;5.50;;;;;;;19.27;48.59;101980.00;5031551;28;20045;-65
2022/07/16 01:11:39;;;;;;;7.43;5.28;;;;;;;19.31;48.79;101980.59;5031272;28;20120;-65
2022/07/16 01:14:08;;;;;;;6.47;5.85;;;;;;;19.35;48.81;101982.09;5032002;28;20029;-66
2022/07/16 01:16:35;;;;;;;6.57;5.65;;;;;;;19.39;48.97;101986.25;5043227;28;20051;-66
2022/07/16 01:19:02;;;;;;;5.82;5.00;;;;;;;19.42;49.15;101987.84;5051456;28;20033;-66
2022/07/16 01:21:29;;;;;;;6.28;5.30;;;;;;;19.46;49.34;101983.84;5051081;28;20491;-67
2022/07/16 01:23:55;;;;;;;6.78;5.43;;;;;;;19.50;49.25;101977.97;5051238;28;20127;-65
2022/07/16 01:26:22;;;;;;;8.57;5.53;;;;;;;19.54;49.49;101975.84;5050429;28;20037;-66
2022/07/16 01:28:49;;;;;;;6.28;5.15;;;;;;;19.56;49.64;101969.25;5051076;28;20049;-65
2022/07/16 01:31:15;;;;;;;5.75;4.72;;;;;;;19.60;49.56;101973.44;5050948;28;20049;-66
2022/07/16 01:33:44;;;;;;;12.68;5.10;;;;;;;19.65;49.99;101978.47;5051048;28;20037;-66
2022/07/16 01:36:13;;;;;;;6.78;5.28;;;;;;;19.67;49.88;101971.88;5050497;28;20057;-66
2022/07/16 01:38:45;;;;;;;6.82;5.10;;;;;;;19.71;49.77;101971.59;5050814;28;20087;-65
2022/07/16 01:41:13;;;;;;;7.28;5.18;;;;;;;19.73;50.05;101972.31;5049292;28;20071;-65
2022/07/16 01:43:41;;;;;;;7.45;5.70;;;;;;;19.75;49.62;101967.56;5050806;28;20499;-67
2022/07/16 01:46:07;;;;;;;7.80;5.82;;;;;;;19.76;49.75;101964.72;5050805;28;20072;-65
2022/07/16 01:48:34;;;;;;;9.38;5.57;;;;;;;19.79;49.99;101969.00;5049122;28;20143;-66
2022/07/16 01:51:01;;;;;;;9.00;6.10;;;;;;;19.82;49.79;101968.72;5050884;28;20037;-65
2022/07/16 01:53:30;;;;;;;6.45;5.65;;;;;;;19.85;50.45;101976.63;5050782;28;20061;-66
2022/07/16 01:55:58;;;;;;;9.98;5.78;;;;;;;19.90;50.28;101971.59;5050861;28;20495;-65
2022/07/16 01:58:25;;;;;;;8.98;5.80;;;;;;;19.94;49.74;101975.78;5050744;28;20064;-66
2022/07/16 02:00:53;;;;;;;9.50;5.22;;;;;;;19.96;50.25;101973.75;5050678;28;20507;-65
2022/07/16 02:03:21;;;;;;;8.55;4.95;;;;;;;19.99;49.89;101971.63;5050681;28;20458;-66
2022/07/16 02:05:49;;;;;;;6.38;5.35;;;;;;;20.02;50.04;101961.41;5050821;28;20040;-66
2022/07/16 02:08:16;;;;;;;8.63;5.05;;;;;;;20.05;49.71;101961.13;5050793;28;20049;-65
2022/07/16 02:10:43;;;;;;;6.93;4.88;;;;;;;20.06;49.71;101966.44;5050151;28;20059;-66
2022/07/16 02:13:09;;;;;;;8.40;5.20;;;;;;;20.07;49.68;101970.06;5050555;28;20048;-65
2022/07/16 02:15:36;;;;;;;6.10;4.90;;;;;;;20.07;49.69;101967.34;5050754;28;20550;-66
2022/07/16 02:18:03;;;;;;;7.38;5.13;;;;;;;20.08;49.85;101967.19;5050449;28;20060;-66
2022/07/16 02:20:30;;;;;;;8.63;5.50;;;;;;;20.09;50.05;101968.06;5049560;28;20447;-66
2022/07/16 02:23:01;;;;;;;11.02;4.82;;;;;;;20.10;50.22;101972.50;5050360;28;20033;-66
2022/07/16 02:25:28;;;;;;;5.65;4.72;;;;;;;20.10;49.97;101969.78;5050426;28;20080;-66
2022/07/16 02:28:07;;;;;;;7.05;4.70;;;;;;;20.11;49.83;101968.78;5050967;28;20125;-65
2022/07/16 02:30:39;;;;;;;6.85;5.45;;;;;;;20.11;50.11;101969.63;5050680;28;20055;-65
2022/07/16 02:33:34;;;;;;;7.85;5.18;;;;;;;20.09;50.08;101966.19;5050733;28;20061;-66
2022/07/16 02:36:01;;;;;;;7.78;5.30;;;;;;;20.11;49.72;101963.31;5050233;28;20566;-65
2022/07/16 02:38:27;;;;;;;10.73;5.90;;;;;;;20.12;49.88;101968.63;5049631;28;20090;-66
2022/07/16 02:40:54;;;;;;;7.60;5.50;;;;;;;20.13;50.00;101958.59;5050540;28;20067;-65
2022/07/16 02:43:22;;;;;;;7.43;5.05;;;;;;;20.13;49.84;101962.16;5049313;28;20067;-65
2022/07/16 02:45:49;;;;;;;7.90;5.35;;;;;;;20.15;49.83;101962.88;5050497;28;20103;-65
2022/07/16 02:48:16;;;;;;;7.78;5.40;;;;;;;20.17;50.29;101962.75;5049866;28;20395;-66
2022/07/16 02:50:42;;;;;;;8.30;6.00;;;;;;;20.18;50.26;101962.59;5050374;28;20124;-66
2022/07/16 02:53:10;;;;;;;6.13;5.50;;;;;;;20.20;49.78;101957.88;5050586;28;20398;-65
2022/07/16 02:55:36;;;;;;;10.35;5.90;;;;;;;20.22;50.14;101957.72;5053830;28;20116;-65
2022/07/16 02:58:04;;;;;;;7.97;5.90;;;;;;;20.23;49.93;101960.31;5053968;28;20037;-65
2022/07/16 03:00:31;;;;;;;7.78;6.25;;;;;;;20.25;50.17;101957.44;5053966;28;20037;-65
2022/07/16 03:02:58;;;;;;;6.32;5.28;;;;;;;20.25;50.06;101961.00;5053607;28;20041;-65
2022/07/16 03:05:26;;;;;;;6.80;5.50;;;;;;;20.27;50.29;101958.16;5054080;28;20033;-65
2022/07/16 03:07:53;;;;;;;8.95;5.60;;;;;;;20.27;49.87;101950.81;5053733;28;20507;-65
2022/07/16 03:10:20;;;;;;;8.68;6.00;;;;;;;20.27;50.03;101950.81;5053711;28;20043;-65
2022/07/16 03:12:51;;;;;;;9.63;6.00;;;;;;;20.29;50.03;101953.41;5053408;28;20116;-65
2022/07/16 03:15:17;;;;;;;8.60;6.38;;;;;;;20.30;50.11;101958.72;5053326;28;20083;-66
2022/07/16 03:17:44;;;;;;;8.23;5.57;;;;;;;20.29;49.96;101957.00;5053603;28;20048;-66
2022/07/16 03:20:14;;;;;;;7.40;5.60;;;;;;;20.28;49.90;101955.28;5053006;28;20037;-66
2022/07/16 03:22:46;;;;;;;6.53;5.78;;;;;;;20.28;50.16;101963.47;5052263;28;20049;-67
2022/07/16 03:25:14;;;;;;;7.90;5.97;;;;;;;20.28;50.01;101966.19;5053483;28;20115;-65
2022/07/16 03:27:41;;;;;;;8.50;5.93;;;;;;;20.30;49.95;101977.81;5053742;28;20128;-65
2022/07/16 03:30:08;;;;;;;9.38;6.22;;;;;;;20.30;49.92;101972.34;5052737;28;20048;-65
2022/07/16 03:32:39;;;;;;;8.30;5.90;;;;;;;20.30;50.02;101969.63;5053078;28;20124;-66
2022/07/16 03:35:07;;;;;;;11.10;6.50;;;;;;;20.30;50.09;101975.09;5053066;28;20104;-65
2022/07/16 03:38:57;;;;;;;8.75;6.25;;;;;;;20.30;49.96;101980.53;5053294;28;20041;-66
2022/07/16 03:40:21;;;;;;;9.82;5.55;;;;;;;20.32;50.27;101974.94;5052492;28;20041;-66
2022/07/16 03:42:48;;;;;;;7.07;6.20;;;;;;;20.32;49.87;101980.41;5053223;28;20453;-65
2022/07/16 03:45:15;;;;;;;7.50;5.40;;;;;;;20.31;50.04;101985.00;5052783;28;20214;-65
2022/07/16 03:47:41;;;;;;;6.75;6.05;;;;;;;20.33;50.28;101983.97;5052939;28;20065;-65
2022/07/16 03:50:08;;;;;;;8.13;6.70;;;;;;;20.34;50.17;101985.72;5052840;28;20102;-65
2022/07/16 03:52:45;;;;;;;9.10;6.18;;;;;;;20.36;50.19;101991.88;5050754;28;20037;-66
2022/07/16 03:55:12;;;;;;;7.47;6.38;;;;;;;20.38;50.21;101995.31;5052942;28;20045;-65
2022/07/16 03:57:39;;;;;;;7.53;6.63;;;;;;;20.38;50.07;101988.00;5052749;28;20040;-66
2022/07/16 04:00:07;;;;;;;8.38;6.85;;;;;;;20.36;50.50;101997.34;5052982;28;20032;-65
2022/07/16 04:02:38;;;;;;;8.32;6.65;;;;;;;20.35;50.38;102001.06;5052244;28;20049;-67
2022/07/16 04:05:06;;;;;;;10.30;6.47;;;;;;;20.32;50.28;101994.03;5051620;28;20049;-67
2022/07/16 04:07:32;;;;;;;8.55;6.53;;;;;;;20.31;50.28;101995.03;5052466;28;20037;-66
2022/07/16 04:09:59;;;;;;;7.90;6.35;;;;;;;20.30;50.37;102007.81;5052507;28;20042;-65
2022/07/16 04:12:26;;;;;;;9.82;6.18;;;;;;;20.29;50.17;102006.09;5052315;28;20041;-65
2022/07/16 04:14:52;;;;;;;11.23;6.47;;;;;;;20.31;50.22;102003.22;5050667;28;20049;-65
2022/07/16 04:17:19;;;;;;;9.45;6.05;;;;;;;20.29;50.32;102000.63;5051903;28;20041;-65
2022/07/16 04:19:46;;;;;;;8.00;5.10;;;;;;;20.29;50.16;101997.06;5052319;28;20068;-66
2022/07/16 04:22:13;;;;;;;8.13;5.53;;;;;;;20.28;50.11;102004.38;5051861;28;20552;-65
2022/07/16 04:24:39;;;;;;;11.20;6.15;;;;;;;20.29;49.83;102003.38;5052098;28;20032;-66
2022/07/16 04:27:07;;;;;;;5.90;5.10;;;;;;;20.29;49.93;102006.09;5052242;28;20134;-66
2022/07/16 04:29:34;;;;;;;9.63;5.35;;;;;;;20.29;49.81;102006.09;5052289;28;20083;-65
2022/07/16 04:32:00;;;;;;;7.60;5.18;;;;;;;20.27;50.30;102013.56;5051787;28;20049;-66
2022/07/16 04:34:27;;;;;;;7.40;5.20;;;;;;;20.26;50.04;102011.84;5051285;28;20040;-66
2022/07/16 04:36:54;;;;;;;7.05;5.25;;;;;;;20.25;50.38;102010.13;5051861;28;20048;-66
2022/07/16 04:39:25;;;;;;;11.68;6.05;;;;;;;20.23;50.09;102016.72;5052270;28;20045;-66
2022/07/16 04:41:52;;;;;;;5.22;4.70;;;;;;;20.21;50.07;102025.06;5052044;28;20127;-67
2022/07/16 04:44:19;;;;;;;7.50;5.30;;;;;;;20.20;50.24;102023.31;5051263;28;20120;-66
2022/07/16 04:46:50;;;;;;;7.65;5.05;;;;;;;20.22;50.30;102023.19;5049384;28;20048;-66
2022/07/16 04:49:16;;;;;;;7.57;5.70;;;;;;;20.19;50.56;102029.78;5051933;28;20577;-66
2022/07/16 04:51:43;;;;;;;8.75;5.63;;;;;;;20.21;50.53;102026.91;5051563;28;20052;-67
2022/07/16 04:54:11;;;;;;;10.82;6.43;;;;;;;20.21;50.63;102033.22;5051877;28;20039;-67
2022/07/16 04:56:37;;;;;;;13.73;6.03;;;;;;;20.22;51.04;102034.97;5051132;28;20083;-67
2022/07/16 04:59:04;;;;;;;8.82;5.85;;;;;;;20.23;50.87;102036.69;5050123;28;20140;-66
2022/07/16 05:01:31;;;;;;;8.07;6.30;;;;;;;20.26;51.43;102041.84;5051367;28;20041;-65
2022/07/16 05:03:57;;;;;;;11.55;6.10;;;;;;;20.30;51.26;102039.69;5051368;28;20055;-69
2022/07/16 05:06:24;;;;;;;8.15;6.88;;;;;;;20.33;51.30;102046.72;5051604;28;20083;-65
2022/07/16 05:08:51;;;;;;;8.13;6.18;;;;;;;20.36;51.74;102044.59;5050843;28;20041;-65
2022/07/16 05:11:17;;;;;;;12.05;6.47;;;;;;;20.39;51.81;102046.16;5051487;28;20037;-65
2022/07/16 05:13:45;;;;;;;8.77;6.55;;;;;;;20.39;51.83;102049.78;5051326;28;20405;-65
2022/07/16 05:16:12;;;;;;;14.40;6.88;;;;;;;20.43;52.13;102059.41;5049999;28;20044;-66
2022/07/16 05:18:38;;;;;;;12.45;7.32;;;;;;;20.44;52.31;102050.22;5051278;28;20041;-66
2022/07/16 05:21:05;;;;;;;11.98;6.75;;;;;;;20.48;52.48;102050.78;5051458;28;20059;-66
2022/07/16 05:23:34;;;;;;;9.63;7.25;;;;;;;20.50;52.68;102054.22;5051128;28;20044;-66
2022/07/16 05:26:00;;;;;;;10.88;7.13;;;;;;;20.54;52.92;102045.59;5050118;28;20144;-66
2022/07/16 05:28:27;;;;;;;13.23;6.57;;;;;;;20.56;53.07;102051.78;5050006;28;20134;-65
2022/07/16 05:30:54;;;;;;;8.75;6.35;;;;;;;20.59;53.45;102058.81;5049722;28;20043;-66
2022/07/16 05:33:20;;;;;;;7.05;6.32;;;;;;;20.62;53.67;102061.25;5050928;28;20059;-67
2022/07/16 05:35:47;;;;;;;9.18;6.20;;;;;;;20.66;53.95;102056.38;5048915;28;20120;-66
2022/07/16 05:38:14;;;;;;;10.30;6.25;;;;;;;20.70;54.08;102058.66;5051024;28;20037;-66
2022/07/16 05:40:40;;;;;;;6.65;5.38;;;;;;;20.74;53.98;102057.38;5051073;28;20064;-66
2022/07/16 05:43:12;;;;;;;9.30;5.60;;;;;;;20.78;54.36;102072.44;5051418;28;20045;-65
2022/07/16 05:45:38;;;;;;;10.32;5.97;;;;;;;20.83;54.28;102066.59;5050802;28;20060;-66
2022/07/16 05:48:05;;;;;;;5.97;4.53;;;;;;;20.89;54.24;102066.00;5050292;28;20045;-67
2022/07/16 05:50:32;;;;;;;8.20;5.18;;;;;;;20.92;54.53;102072.03;5049605;28;20040;-65
2022/07/16 05:52:59;;;;;;;6.78;4.30;;;;;;;20.96;54.30;102071.75;5051158;28;20124;-66
2022/07/16 05:55:27;;;;;;;7.72;4.15;;;;;;;21.00;54.58;102084.09;5050809;28;20037;-66
2022/07/16 05:57:54;;;;;;;6.57;4.55;;;;;;;21.05;54.40;102076.31;5049657;28;20483;-67
2022/07/16 06:00:20;;;;;;;6.93;4.38;;;;;;;21.14;54.82;102083.63;5064398;28;20033;-67
2022/07/16 06:02:48;;;;;;;6.18;3.83;;;;;;;21.22;54.35;102081.91;5050656;28;20033;-66
2022/07/16 06:05:15;;;;;;;6.50;3.75;;;;;;;21.32;54.64;102086.47;5050722;28;20049;-67
2022/07/16 06:07:41;;;;;;;6.95;3.88;;;;;;;21.41;54.58;102091.91;5050820;28;20392;-66
2022/07/16 06:10:09;;;;;;;8.30;3.78;;;;;;;21.48;54.18;102089.44;5050581;28;20041;-66
2022/07/16 06:12:39;;;;;;;11.55;4.40;;;;;;;21.54;54.02;102086.97;5050594;28;20098;-67
2022/07/16 06:15:07;;;;;;;6.00;3.80;;;;;;;21.67;54.05;102092.13;5050730;28;20039;-66
2022/07/16 06:17:34;;;;;;;9.88;3.25;;;;;;;21.76;53.90;102093.94;5050957;28;20051;-67
2022/07/16 06:20:01;;;;;;;7.20;2.97;;;;;;;21.84;53.89;102098.66;5050754;28;20045;-69
2022/07/16 06:22:27;;;;;;;3.33;2.58;;;;;;;21.91;53.97;102096.16;5050157;28;20051;-68
2022/07/16 06:24:54;;;;;;;3.97;2.17;;;;;;;21.96;53.68;102099.31;5049611;28;20502;-68
2022/07/16 06:27:21;;;;;;;3.20;2.20;;;;;;;22.05;53.46;102106.63;5061882;28;20049;-66
2022/07/16 06:29:47;;;;;;;5.55;2.33;;;;;;;22.17;53.29;102110.88;5074293;28;20075;-66
2022/07/16 06:32:14;;;;;;;4.47;2.15;;;;;;;22.29;53.21;102109.63;5074110;28;20493;-66
2022/07/16 06:34:40;;;;;;;2.65;1.85;;;;;;;22.45;52.93;102112.56;5071235;28;20414;-66
2022/07/16 06:37:07;;;;;;;3.63;1.80;;;;;;;22.57;52.69;102107.72;5054168;28;20124;-66
2022/07/16 06:39:34;;;;;;;2.50;1.50;;;;;;;22.70;52.36;102112.81;5053697;28;20161;-66
2022/07/16 06:42:00;;;;;;;6.03;2.00;;;;;;;22.83;52.15;102121.50;5054007;28;20037;-67
2022/07/16 06:44:33;;;;;;;3.25;1.48;;;;;;;22.97;52.07;102122.81;5037156;28;20099;-67
2022/07/16 06:47:01;;;;;;;4.47;1.90;;;;;;;23.11;51.81;102127.75;5053654;28;20429;-66
2022/07/16 06:49:27;;;;;;;2.15;1.48;;;;;;;23.24;51.44;102124.59;5054298;28;20043;-66
2022/07/16 06:51:54;;;;;;;3.33;1.40;;;;;;;23.34;50.87;102125.34;5052446;28;20487;-66
2022/07/16 06:54:20;;;;;;;2.40;1.30;;;;;;;23.41;50.51;102126.41;5054062;28;20418;-68
2022/07/16 06:56:47;;;;;;;6.13;1.17;;;;;;;23.45;50.20;102125.06;5034182;28;20125;-68
2022/07/16 06:59:16;;;;;;;6.60;1.58;;;;;;;23.55;49.97;102130.47;5042237;28;20056;-69
2022/07/16 07:01:43;;;;;;;3.55;1.20;;;;;;;23.66;49.55;102135.69;5053813;28;20136;-68
2022/07/16 07:04:11;;;;;;;4.50;1.13;;;;;;;23.75;49.14;102143.78;5053951;28;20505;-69
2022/07/16 07:06:38;;;;;;;1.88;0.90;;;;;;;23.83;48.76;102142.13;5053252;28;20422;-68
2022/07/16 07:09:05;;;;;;;6.47;1.33;;;;;;;23.88;48.23;102148.00;5053279;28;20033;-69
2022/07/16 07:11:31;;;;;;;3.03;1.10;;;;;;;23.92;47.46;102150.25;5053589;28;20045;-68
2022/07/16 07:13:58;;;;;;;1.50;0.80;;;;;;;23.95;47.18;102152.66;5053337;28;20143;-69
2022/07/16 07:16:25;;;;;;;1.85;1.05;;;;;;;24.03;46.76;102160.06;5053481;28;20548;-68
2022/07/16 07:18:52;;;;;;;5.05;1.27;;;;;;;24.13;46.57;102163.53;5053672;28;20073;-69
2022/07/16 07:21:19;;;;;;;3.05;1.00;;;;;;;24.21;46.63;102163.56;5052972;28;20037;-68
2022/07/16 07:23:47;;;;;;;6.15;1.48;;;;;;;24.25;46.16;102169.56;5053322;28;20111;-68
2022/07/16 07:26:13;;;;;;;2.17;0.93;;;;;;;24.29;45.68;102180.09;5053126;28;20505;-72
2022/07/16 07:28:40;;;;;;;3.67;1.40;;;;;;;24.35;46.18;102171.19;5052892;28;20037;-67
2022/07/16 07:31:07;;;;;;;3.83;1.10;;;;;;;24.45;45.95;102173.78;5052005;28;20039;-68
2022/07/16 07:33:38;;;;;;;2.35;1.10;;;;;;;24.53;46.02;102176.59;5053039;28;20041;-68
2022/07/16 07:36:05;;;;;;;3.05;1.00;;;;;;;24.61;45.56;102176.59;5052932;28;20148;-69
2022/07/16 07:38:32;;;;;;;5.03;1.33;;;;;;;24.68;45.28;102179.53;5051525;28;20124;-68
2022/07/16 07:40:59;;;;;;;2.78;1.00;;;;;;;24.75;45.17;102183.31;5051846;28;20033;-68
2022/07/16 07:43:27;;;;;;;3.95;1.40;;;;;;;24.84;44.85;102184.19;5052860;28;20048;-68
2022/07/16 07:45:54;;;;;;;4.47;1.30;;;;;;;24.87;44.29;102192.09;5053100;28;20438;-69
2022/07/16 07:48:20;;;;;;;2.45;1.10;;;;;;;24.85;44.34;102188.66;5052361;28;20483;-70
2022/07/16 07:50:47;;;;;;;4.93;1.30;;;;;;;24.77;43.59;102200.50;5052657;28;20460;-69
2022/07/16 07:53:15;;;;;;;2.75;1.35;;;;;;;24.72;43.68;102197.41;5052592;28;20102;-69
2022/07/16 07:55:42;;;;;;;3.67;1.35;;;;;;;24.74;44.12;102195.34;5053365;28;20128;-69
2022/07/16 07:58:09;;;;;;;7.38;1.50;;;;;;;24.81;44.04;102190.03;5051184;28;20032;-69
2022/07/16 08:00:36;;;;;;;5.10;1.10;;;;;;;24.88;43.57;102193.81;5052453;28;20494;-69
2022/07/16 08:03:08;;;;;;;3.15;1.35;;;;;;;24.95;43.39;102187.47;5052157;28;20036;-70
2022/07/16 08:05:35;;;;;;;4.55;1.10;;;;;;;25.00;42.95;102193.34;5052597;28;20044;-69
2022/07/16 08:08:03;;;;;;;4.22;1.20;;;;;;;25.07;43.18;102192.66;5052070;28;20135;-69
2022/07/16 08:10:29;;;;;;;5.63;1.23;;;;;;;25.18;43.40;102193.16;5052605;28;20047;-69
2022/07/16 08:13:00;;;;;;;4.47;1.30;;;;;;;25.30;43.09;102202.81;5052519;28;20071;-69
2022/07/16 08:15:27;;;;;;;4.13;1.13;;;;;;;25.38;42.96;102207.47;5052143;28;20418;-69
2022/07/16 08:17:53;;;;;;;4.05;1.30;;;;;;;25.44;42.08;102204.00;5051503;28;20487;-69
2022/07/16 08:20:20;;;;;;;2.30;1.10;;;;;;;25.46;42.18;102209.34;5052767;28;20036;-69
2022/07/16 08:22:50;;;;;;;2.67;1.10;;;;;;;25.46;41.70;102206.59;5052725;28;20403;-71
2022/07/16 08:28:02;;;;;;;2.97;1.02;;;;;;;25.39;40.90;102213.81;5052914;28;20367;-69
2022/07/16 08:30:28;;;;;;;3.35;0.90;;;;;;;25.32;40.69;102214.50;5052705;28;20476;-69
2022/07/16 08:32:56;;;;;;;4.22;1.02;;;;;;;25.28;40.60;102215.88;5052761;28;20059;-69
2022/07/16 08:35:23;;;;;;;4.90;1.33;;;;;;;25.26;40.68;102222.56;5052688;28;20091;-69
2022/07/16 08:37:53;;;;;;;2.28;1.10;;;;;;;25.34;40.68;102226.19;5052479;28;20045;-70
2022/07/16 08:40:22;;;;;;;2.45;1.17;;;;;;;25.49;40.71;102223.59;5052628;28;20087;-69
2022/07/16 08:42:52;;;;;;;2.75;0.93;;;;;;;25.63;40.17;102224.78;5052979;28;20063;-69
2022/07/16 08:45:22;;;;;;;4.10;1.00;;;;;;;25.70;39.79;102234.09;5052644;28;20139;-68
2022/07/16 08:47:50;;;;;;;3.63;0.98;;;;;;;25.78;39.86;102231.31;5052895;28;20394;-69
2022/07/16 08:50:17;;;;;;;3.22;0.90;;;;;;;25.88;39.73;102240.25;5052754;28;20094;-70
2022/07/16 08:52:51;;;;;;;4.85;0.80;;;;;;;25.97;39.19;102241.94;5051373;28;20418;-69
2022/07/16 08:55:18;;;;;;;2.03;0.90;;;;;;;25.99;38.98;102241.78;5052003;28;20045;-69
2022/07/16 08:57:48;;;;;;;5.15;1.05;;;;;;;25.97;38.27;102244.69;5052437;28;20501;-69
2022/07/16 09:00:16;;;;;;;2.42;0.95;;;;;;;25.96;38.46;102250.38;5052859;28;20045;-70
2022/07/16 09:02:47;;;;;;;2.58;0.98;;;;;;;26.00;38.04;102246.25;5052619;28;20098;-70
2022/07/16 09:05:14;;;;;;;2.35;0.60;;;;;;;26.06;38.03;102255.72;5052407;28;20170;-70
2022/07/16 09:07:41;;;;;;;4.03;1.25;;;;;;;26.17;38.46;102255.34;5052493;28;20072;-70
2022/07/16 09:10:09;;;;;;;2.88;0.77;;;;;;;26.28;38.17;102252.19;5052809;28;20037;-70
2022/07/16 09:12:44;;;;;;;4.95;0.90;;;;;;;26.36;37.79;102263.22;5052610;28;20055;-70
2022/07/16 09:15:38;;;;;;;5.38;1.10;;;;;;;26.40;37.57;102270.09;5052957;28;20043;-70
2022/07/16 09:18:08;;;;;;;2.13;0.95;;;;;;;26.48;37.20;102274.69;5050748;28;20117;-70
2022/07/16 09:20:38;;;;;;;2.78;1.00;;;;;;;26.44;37.33;102278.84;5051673;28;20041;-70
2022/07/16 09:23:35;;;;;;;3.90;0.98;;;;;;;26.40;37.09;102283.00;5050133;28;20048;-72
2022/07/16 09:26:10;;;;;;;1.65;1.13;;;;;;;26.45;36.92;102272.31;5051606;28;20486;-70
2022/07/16 09:28:46;;;;;;;3.83;1.25;;;;;;;26.45;36.60;102283.31;5051309;28;20036;-70
2022/07/16 09:31:36;;;;;;;2.90;1.08;;;;;;;26.49;36.48;102274.53;5050140;28;20045;-70
2022/07/16 09:34:08;;;;;;;6.78;1.05;;;;;;;26.63;36.56;102285.81;5050049;28;20049;-69
2022/07/16 09:36:36;;;;;;;1.90;1.13;;;;;;;26.72;36.34;102277.34;5051324;28;20052;-70
2022/07/16 09:39:05;;;;;;;4.03;1.00;;;;;;;26.81;35.72;102279.03;5050304;28;20037;-70
2022/07/16 09:41:46;;;;;;;1.98;1.00;;;;;;;26.90;35.69;102269.69;5051220;28;20036;-70
2022/07/16 09:44:15;;;;;;;3.72;0.88;;;;;;;27.05;35.56;102285.47;5051200;28;20041;-69
2022/07/16 09:47:08;;;;;;;4.13;1.00;;;;;;;27.16;35.35;102282.28;5051243;28;20047;-70
2022/07/16 09:49:37;;;;;;;3.83;0.93;;;;;;;27.33;35.30;102286.66;5050686;28;20057;-71
2022/07/16 09:52:05;;;;;;;1.98;0.80;;;;;;;27.40;34.91;102289.53;5050714;28;20064;-69
2022/07/16 09:54:37;;;;;;;1.45;0.80;;;;;;;27.39;34.63;102279.53;5051811;28;20048;-70
2022/07/16 09:57:18;;;;;;;2.63;1.10;;;;;;;27.40;33.97;102295.03;5050922;28;20045;-70
2022/07/16 09:59:47;;;;;;;2.72;1.20;;;;;;;27.33;33.57;102291.31;5050358;28;20140;-70
2022/07/16 10:02:42;;;;;;;3.60;1.00;;;;;;;27.26;34.06;102293.09;5032277;28;20045;-71
2022/07/16 10:05:09;;;;;;;2.40;1.00;;;;;;;27.28;33.89;102288.25;5034876;28;20079;-70
2022/07/16 10:07:35;;;;;;;2.17;0.70;;;;;;;27.28;33.70;102294.63;5035155;28;20037;-70
2022/07/16 10:10:02;;;;;;;2.40;0.82;;;;;;;27.30;33.46;102292.53;5049092;28;20037;-72
2022/07/16 10:12:49;;;;;;;1.90;0.90;;;;;;;27.33;33.26;102300.44;5053778;28;20123;-68
2022/07/16 10:15:16;;;;;;;1.25;0.80;;;;;;;27.34;33.29;102298.53;5054830;28;20064;-69
2022/07/16 10:17:43;;;;;;;2.08;0.93;;;;;;;27.34;33.19;102298.53;5054525;28;20037;-69
2022/07/16 10:20:12;;;;;;;1.77;0.70;;;;;;;27.40;33.39;102297.78;5054224;28;20045;-68
2022/07/16 10:22:42;;;;;;;2.03;0.80;;;;;;;27.45;33.55;102309.13;5035132;28;20045;-70
2022/07/16 10:25:15;;;;;;;2.33;0.77;;;;;;;27.43;33.13;102301.03;5033532;28;20069;-69
2022/07/16 10:27:43;;;;;;;2.22;0.90;;;;;;;27.38;33.04;102309.03;5034851;28;20038;-68
2022/07/16 10:30:22;;;;;;;2.28;0.80;;;;;;;27.34;32.96;102309.56;5036313;28;20046;-69
2022/07/16 10:33:02;;;;;;;1.95;0.80;;;;;;;27.33;32.62;102314.22;5054295;28;20040;-70
2022/07/16 10:35:41;;;;;;;2.72;1.00;;;;;;;27.29;32.58;102312.88;5054642;28;20075;-69
2022/07/16 10:38:15;;;;;;;1.42;0.80;;;;;;;27.29;32.30;102304.59;5054013;28;20525;-70
2022/07/16 10:41:08;;;;;;;3.70;0.93;;;;;;;27.40;32.60;102306.06;5034466;28;20053;-69
2022/07/16 10:43:36;;;;;;;1.80;1.02;;;;;;;27.50;32.52;102315.00;5033239;28;20486;-69
2022/07/16 10:46:06;;;;;;;1.60;0.73;;;;;;;27.49;32.49;102324.28;5034783;28;20389;-70
2022/07/16 10:48:38;;;;;;;3.03;0.85;;;;;;;27.42;32.12;102321.41;5038382;28;20064;-69
2022/07/16 10:51:15;;;;;;;2.78;1.08;;;;;;;27.37;31.88;102317.47;5054185;28;20045;-70
2022/07/16 10:53:57;;;;;;;2.53;1.00;;;;;;;27.28;31.98;102324.09;5054193;28;20049;-70
2022/07/16 10:56:44;;;;;;;6.00;0.90;;;;;;;27.34;32.21;102324.22;5054300;28;20565;-69
2022/07/16 10:59:16;;;;;;;2.00;0.90;;;;;;;27.39;32.38;102330.06;5053800;28;20048;-70
2022/07/16 11:01:45;;;;;;;2.30;1.15;;;;;;;27.40;32.19;102331.78;5053673;28;20040;-69
2022/07/16 11:04:14;;;;;;;3.45;0.90;;;;;;;27.40;32.25;102329.00;5053855;28;20056;-70
2022/07/16 11:06:48;;;;;;;4.55;1.40;;;;;;;27.45;32.00;102331.22;5053860;28;20136;-70
2022/07/16 11:09:14;;;;;;;3.28;0.80;;;;;;;27.53;32.10;102336.69;5053912;28;20120;-69
2022/07/16 11:11:42;;;;;;;2.80;1.15;;;;;;;27.60;32.05;102336.81;5053645;28;20033;-70
2022/07/16 11:14:10;;;;;;;2.88;0.98;;;;;;;27.74;32.08;102336.91;5053103;28;20241;-69
2022/07/16 11:16:48;;;;;;;2.50;1.10;;;;;;;27.88;31.92;102332.47;5054002;28;20051;-70
2022/07/16 11:19:17;;;;;;;2.78;1.02;;;;;;;28.03;31.96;102332.47;5039221;28;20037;-71
2022/07/16 11:21:52;;;;;;;2.55;0.80;;;;;;;28.23;31.75;102316.22;5053464;28;20123;-69
2022/07/16 11:24:19;;;;;;;11.00;1.80;;;;;;;28.36;31.72;102333.91;5053640;28;20052;-70
2022/07/16 11:26:45;;;;;;;1.40;0.70;;;;;;;28.39;30.91;102343.72;5053765;28;20533;-69
2022/07/16 11:29:12;;;;;;;4.93;1.05;;;;;;;28.31;30.51;102341.06;5053487;28;20481;-70
2022/07/16 11:31:40;;;;;;;2.55;0.65;;;;;;;28.27;30.51;102339.72;5052288;28;20406;-71
2022/07/16 11:34:10;;;;;;;2.30;0.85;;;;;;;28.34;30.68;102333.25;5053672;28;20045;-70
2022/07/16 11:36:39;;;;;;;3.17;0.90;;;;;;;28.43;30.81;102336.78;5053933;28;20037;-70